createdAt,value
2023-06-27T00:00:23.945Z,20.90
2023-06-27T00:10:59.399Z,20.80
2023-06-27T00:21:36.129Z,20.70
2023-06-27T00:32:11.042Z,20.50
2023-06-27T00:42:46.463Z,20.50
2023-06-27T00:53:22.718Z,20.10
2023-06-27T01:03:58.077Z,20.10
2023-06-27T01:14:36.167Z,19.90
2023-06-27T01:25:13.991Z,19.70
2023-06-27T01:36:05.914Z,19.50
2023-06-27T01:46:41.702Z,19.30
2023-06-27T01:57:16.750Z,19.10
2023-06-27T02:07:51.543Z,18.90
2023-06-27T02:18:26.082Z,18.70
2023-06-27T02:29:00.981Z,18.50
2023-06-27T02:39:35.820Z,18.30
2023-06-27T02:50:11.066Z,18.20
2023-06-27T03:00:46.097Z,18.00
2023-06-27T03:11:21.238Z,17.80
2023-06-27T03:21:56.831Z,17.70
2023-06-27T03:32:33.773Z,17.60
2023-06-27T03:43:12.638Z,17.40
2023-06-27T03:53:48.259Z,17.50
2023-06-27T04:04:23.249Z,17.50
2023-06-27T04:14:58.165Z,17.60
2023-06-27T04:25:34.405Z,17.60
2023-06-27T04:36:11.715Z,17.70
2023-06-27T04:46:46.708Z,17.70
2023-06-27T04:57:21.449Z,18.00
2023-06-27T05:07:56.308Z,18.20
2023-06-27T05:18:31.282Z,18.30
2023-06-27T05:29:06.001Z,18.60
2023-06-27T05:39:40.727Z,19.00
2023-06-27T05:50:15.566Z,19.00
2023-06-27T06:00:50.412Z,19.00
2023-06-27T06:11:25.257Z,19.20
2023-06-27T06:22:00.008Z,19.50
2023-06-27T06:32:35.955Z,19.60
2023-06-27T06:43:11.043Z,19.80
2023-06-27T06:53:45.936Z,19.90
2023-06-27T07:04:20.913Z,20.50
2023-06-27T07:14:55.581Z,20.40
2023-06-27T07:25:31.988Z,20.60
2023-06-27T07:36:06.655Z,20.80
2023-06-27T07:46:41.641Z,20.90
2023-06-27T07:57:16.528Z,22.50
2023-06-27T08:07:51.338Z,23.00
2023-06-27T08:18:26.252Z,22.70
2023-06-27T08:29:00.881Z,22.80
2023-06-27T08:39:35.767Z,23.30
2023-06-27T08:50:14.846Z,23.30
2023-06-27T09:00:50.024Z,24.20
2023-06-27T09:11:28.167Z,24.40
2023-06-27T09:22:03.493Z,25.00
2023-06-27T09:32:56.147Z,25.70
2023-06-27T09:43:37.969Z,26.00
2023-06-27T10:05:09.305Z,27.10
2023-06-27T10:15:44.754Z,26.90
2023-06-27T10:26:21.345Z,27.20
2023-06-27T10:36:56.040Z,27.80
2023-06-27T10:47:36.356Z,26.90
2023-06-27T10:58:12.245Z,27.90
2023-06-27T11:08:57.624Z,28.00
2023-06-27T11:19:37.130Z,27.40
2023-06-27T11:30:12.472Z,27.10
2023-06-27T11:40:51.572Z,27.20
2023-06-27T11:51:26.721Z,27.20
2023-06-27T12:02:06.748Z,27.60
2023-06-27T12:12:41.791Z,27.60
2023-06-27T12:23:16.914Z,28.00
2023-06-27T12:33:52.673Z,27.60
2023-06-27T12:44:27.486Z,28.50
2023-06-27T12:55:02.810Z,28.80
2023-06-27T13:05:38.949Z,29.30
2023-06-27T13:16:16.392Z,29.00
2023-06-27T13:26:59.612Z,28.90
2023-06-27T13:37:42.626Z,28.60
2023-06-27T13:48:24.188Z,28.80
2023-06-27T13:59:00.707Z,29.50
2023-06-27T14:09:35.232Z,28.70
2023-06-27T14:20:12.103Z,28.20
2023-06-27T14:30:47.144Z,27.80
2023-06-27T14:41:21.757Z,27.40
2023-06-27T14:51:56.712Z,27.10
2023-06-27T15:02:31.454Z,27.10
2023-06-27T15:13:16.792Z,26.90
2023-06-27T15:23:51.910Z,27.10
2023-06-27T15:34:26.609Z,26.80
2023-06-27T15:45:04.792Z,26.90
2023-06-27T15:55:39.628Z,26.80
2023-06-27T16:06:14.168Z,26.70
2023-06-27T16:16:49.175Z,26.20
2023-06-27T16:27:25.127Z,26.10
2023-06-27T16:37:59.911Z,25.80
2023-06-27T16:48:35.005Z,25.70
2023-06-27T16:59:09.703Z,25.40
2023-06-27T17:09:44.567Z,25.40
2023-06-27T17:20:19.493Z,25.50
2023-06-27T17:30:54.216Z,25.00
2023-06-27T17:41:29.116Z,24.90
2023-06-27T17:52:04.641Z,24.60
2023-06-27T18:02:39.718Z,24.30
2023-06-27T18:13:14.766Z,24.20
2023-06-27T18:23:49.628Z,24.10
2023-06-27T18:34:24.285Z,24.00
2023-06-27T18:44:59.191Z,23.80
2023-06-27T18:55:33.925Z,23.70
2023-06-27T19:06:08.987Z,23.40
2023-06-27T19:16:44.568Z,23.30
2023-06-27T19:27:20.037Z,23.20
2023-06-27T19:37:54.836Z,23.00
2023-06-27T19:48:29.849Z,22.80
2023-06-27T19:59:04.446Z,22.70
2023-06-27T20:09:44.869Z,22.50
2023-06-27T20:20:20.110Z,22.50
2023-06-27T20:30:54.990Z,22.30
2023-06-27T20:41:29.652Z,22.20
2023-06-27T20:52:05.597Z,22.10
2023-06-27T21:02:40.527Z,22.00
2023-06-27T21:13:15.193Z,21.90
2023-06-27T21:23:51.007Z,21.80
2023-06-27T21:34:25.816Z,21.80
2023-06-27T21:45:00.480Z,21.70
2023-06-27T21:55:35.340Z,21.60
2023-06-27T22:06:10.153Z,21.40
2023-06-27T22:16:45.070Z,21.40
2023-06-27T22:27:19.984Z,21.30
2023-06-27T22:37:54.750Z,21.20
2023-06-27T22:48:29.486Z,21.10
2023-06-27T22:59:04.305Z,21.00
2023-06-27T23:09:39.117Z,20.90
2023-06-27T23:20:13.863Z,20.90
2023-06-27T23:30:56.842Z,20.70
2023-06-27T23:41:31.605Z,20.70
2023-06-27T23:52:06.774Z,20.50
